Stations météo

Publicité
Mont Aigoual, France (7560): Température de l'air & dewpoint: 20.05.2018 23:00:00 - 26.05.2018 23:00:00 (CEST)Mont Aigoual, France (7560): Vitesse du vent & gusts: 20.05.2018 23:00:00 - 26.05.2018 23:00:00 (CEST)Mont Aigoual, France (7560): Direction du vent: 20.05.2018 23:00:00 - 26.05.2018 23:00:00 (CEST)Mont Aigoual, France (7560): visibility: 20.05.2018 23:00:00 - 26.05.2018 23:00:00 (CEST)Mont Aigoual, France (7560): Quantités de précipitations: 20.05.2018 23:00:00 - 26.05.2018 23:00:00 (CEST)
Date & Time tt [°C] td [°C] ff [km/h] ff [knt] fx [km/h] fx [knt] dd vv [km] rr [mm]
26.05.2018 23:00:00 10,1 6,2 50 27 74 40 S 20 0,0
26.05.2018 22:00:00 10,6 6,0 44 24 81 44 S 20 0,0
26.05.2018 21:00:00 11,3 6,0 43 23 74 40 S 20 0,0
26.05.2018 20:00:00 12,3 5,7 49 26 81 44 S 20 0,0
26.05.2018 19:00:00 13,6 6,7 46 25 93 50 S 20 0,0
26.05.2018 18:00:00 14,0 8,0 58 31 96 52 S 20 0,0
26.05.2018 17:00:00 14,8 7,1 61 33 108 59 S 20 0,0
26.05.2018 16:00:00 14,9 5,4 72 39 109 59 S 20 0,0
26.05.2018 15:00:00 15,1 6,9 50 27 80 43 S 20 0,0
26.05.2018 14:00:00 14,3 5,9 42 23 81 44 S 20 0,0
26.05.2018 13:00:00 13,2 6,5 49 26 79 43 S 20 0,0
26.05.2018 12:00:00 12,5 9,0 39 21 84 45 S 20 0,0
26.05.2018 11:00:00 12,5 8,2 57 31 86 47 SSE 20 0,0
26.05.2018 10:00:00 11,1 7,4 53 29 81 44 SSE 20 0,0
26.05.2018 09:00:00 10,4 6,9 35 19 84 45 SSE 20 0,0
26.05.2018 08:00:00 9,8 7,7 50 27 102 55 S 20 0,2
26.05.2018 07:00:00 9,8 6,7 49 26 81 44 S 20 0,0
26.05.2018 06:00:00 8,6 5,9 46 25 96 52 S 20 0,0
26.05.2018 05:00:00 9,9 1,3 46 25 84 45 S 20 0,0
26.05.2018 04:00:00 10,6 -1,5 47 26 65 35 S 20 0,0
26.05.2018 03:00:00 10,6 -1,2 41 22 62 33 S 20 0,0
26.05.2018 02:00:00 10,8 0,2 45 25 59 32 S 20 0,0
26.05.2018 01:00:00 10,8 0,2 43 23 60 33 S 20 0,0
26.05.2018 00:00:00 10,9 0,0 47 25 66 36 S 20 0,0
25.05.2018 23:00:00 10,9 0,6 44 24 59 32 S 20 0,0
25.05.2018 22:00:00 11,0 1,5 40 21 58 32 SSE 20 0,0
25.05.2018 21:00:00 11,3 1,0 35 19 43 23 SSE 20 0,0
25.05.2018 20:00:00 11,5 6,8 29 15 40 21 SSE 20 0,0
25.05.2018 19:00:00 12,8 8,1 30 16 43 23 SSE 20 0,0
25.05.2018 18:00:00 14,4 8,6 23 12 34 19 S 20 0,0
25.05.2018 17:00:00 13,6 5,2 14 8 44 24 SSE 20 0,0
25.05.2018 16:00:00 14,3 8,7 28 15 46 25 S 20 0,0
25.05.2018 15:00:00 14,1 7,6 22 12 38 20 S 20 0,0
25.05.2018 14:00:00 14,0 7,5 27 15 39 21 S 20 0,0
25.05.2018 13:00:00 14,0 6,8 25 13 42 23 S 20 0,0
25.05.2018 12:00:00 13,9 9,5 27 15 41 22 S 20 0,0
25.05.2018 11:00:00 13,2 9,4 27 14 39 21 S 20 0,0
25.05.2018 10:00:00 12,9 6,5 32 18 43 23 S 20 0,0
25.05.2018 09:00:00 12,1 5,9 26 14 39 21 S 20 0,0
25.05.2018 08:00:00 11,8 5,9 29 16 41 22 S 20 0,0
25.05.2018 07:00:00 11,6 5,7 29 16 44 24 S 20 0,0
25.05.2018 06:00:00 11,3 6,8 18 10 28 15 SSW 20 0,0
25.05.2018 05:00:00 11,0 8,2 25 14 31 17 SSW 20 0,0
25.05.2018 04:00:00 10,9 8,5 22 12 26 14 SSW 19 0,0
25.05.2018 03:00:00 11,0 8,9 14 7 18 10 SSW 12 0,0
25.05.2018 02:00:00 10,9 5,8 13 7 22 12 SSW 20 0,0
25.05.2018 01:00:00 11,4 5,9 16 9 21 11 S 20 0,0
25.05.2018 00:00:00 11,6 5,5 9 5 14 7 S 20 0,0
24.05.2018 23:00:00 11,9 5,3 7 4 13 7 S 20 0,0
24.05.2018 22:00:00 11,7 5,3 6 3 10 5 S 20 0,0
24.05.2018 21:00:00 10,8 8,4 6 4 11 6 SSE 19 0,0
24.05.2018 20:00:00 11,5 9,6 7 4 22 12 S 17 0,0
24.05.2018 19:00:00 11,9 10,3 20 11 41 22 S 14 0,0
24.05.2018 18:00:00 12,4 9,8 26 14 45 24 S 20 0,0
24.05.2018 17:00:00 12,7 10,1 25 13 41 22 S 19 0,0
24.05.2018 16:00:00 12,0 9,6 20 11 44 24 SE 20 0,0
24.05.2018 15:00:00 12,7 9,3 28 15 46 25 S 20 0,0
24.05.2018 14:00:00 11,3 9,4 21 12 39 21 S 7 0,0
24.05.2018 13:00:00 11,0 9,3 24 13 44 24 S 19 0,0
24.05.2018 12:00:00 10,9 8,1 25 13 39 21 S 20 0,0
24.05.2018 11:00:00 10,1 8,2 26 14 38 20 S 20 0,0
24.05.2018 10:00:00 9,9 8,3 23 13 34 18 S 19 0,0
24.05.2018 09:00:00 9,9 7,1 21 12 26 14 S 20 0,0
24.05.2018 08:00:00 10,1 5,5 16 8 21 11 S 20 0,0
24.05.2018 07:00:00 9,6 5,2 14 7 18 10 S 20 0,0
24.05.2018 06:00:00 9,6 5,9 13 7 19 11 SSW 20 0,0
24.05.2018 05:00:00 9,5 6,6 14 8 25 13 SSW 20 0,0
24.05.2018 04:00:00 9,1 6,9 15 8 34 18 SSW 20 0,0
24.05.2018 03:00:00 9,2 7,5 18 10 36 19 SSW 20 0,0
24.05.2018 02:00:00 9,6 7,0 31 17 42 23 SW 20 0,0
24.05.2018 01:00:00 9,2 6,3 30 16 40 22 WSW 20 0,0
24.05.2018 00:00:00 9,0 7,0 25 13 34 18 SW 20 0,0
23.05.2018 23:00:00 9,5 6,8 18 10 29 16 WSW 20 0,0
23.05.2018 22:00:00 9,5 6,8 23 12 32 17 SW 20 0,0
23.05.2018 21:00:00 9,9 7,1 21 11 26 14 SW 20 0,0
23.05.2018 20:00:00 10,1 8,9 13 7 18 10 S 20 0,0
23.05.2018 19:00:00 10,1 9,2 12 6 22 12 S 0,3 0,0
23.05.2018 18:00:00 11,2 9,1 8 4 19 10 SSW 20 0,0
23.05.2018 17:00:00 9,7 8,8 12 6 20 11 S 0,4 0,0
23.05.2018 16:00:00 10,8 9,1 8 5 37 20 ESE 0,2 0,0
23.05.2018 15:00:00 12,4 6,4 17 9 36 19 NNW 20 0,0
23.05.2018 14:00:00 11,8 6,9 15 8 32 17 NW 20 0,0
23.05.2018 13:00:00 11,5 9,1 9 5 32 17 SW 20 0,0
23.05.2018 12:00:00 11,3 6,6 16 9 28 15 WNW 20 0,0
23.05.2018 11:00:00 10,3 5,9 18 10 29 16 NW 20 0,0
23.05.2018 10:00:00 9,9 7,1 19 10 33 18 NW 20 0,0
23.05.2018 09:00:00 8,6 6,9 23 12 27 15 WNW 20 0,0
23.05.2018 08:00:00 8,5 7,0 21 12 27 15 NW 20 0,0
23.05.2018 07:00:00 8,1 6,9 22 12 31 17 NW 20 0,0
23.05.2018 06:00:00 7,5 6,9 29 16 34 18 NW 14 0,0
23.05.2018 05:00:00 7,9 6,4 23 12 30 16 NW 20 0,0
23.05.2018 04:00:00 7,8 5,8 28 15 32 17 NW 20 0,0
23.05.2018 03:00:00 8,0 7,1 29 16 32 17 NW 20 0,0
23.05.2018 02:00:00 8,4 6,4 22 12 28 15 NNW 20 0,0
23.05.2018 01:00:00 7,7 7,6 29 15 38 21 NW 0,3 0,0
23.05.2018 00:00:00 8,3 6,9 26 14 33 18 NNW 20 0,0
22.05.2018 23:00:00 8,5 6,5 25 13 39 21 NNW 20 0,0
22.05.2018 22:00:00 8,4 6,2 24 13 30 16 N 20 0,0
22.05.2018 21:00:00 9,1 6,9 13 7 16 9 N 20 0,0
22.05.2018 20:00:00 8,8 6,4 8 4 21 12 ENE 20 0,4
22.05.2018 19:00:00 8,5 7,0 8 4 22 12 N 18 3,4
22.05.2018 18:00:00 8,6 7,7 9 5 29 16 SSE 1,9 0,4
22.05.2018 17:00:00 9,8 8,2 14 8 29 16 SSE 0,1 0,0
22.05.2018 16:00:00 10,8 8,9 9 5 31 17 SSE 13 0,0
22.05.2018 15:00:00 11,9 7,4 18 10 35 19 WNW 20 0,0
22.05.2018 14:00:00 12,4 7,7 23 13 41 22 NW 19 0,0
22.05.2018 13:00:00 11,8 5,6 20 11 35 19 NW 20 0,0
22.05.2018 12:00:00 10,3 6,4 22 12 31 17 NW 20 0,0
22.05.2018 11:00:00 9,6 5,9 22 12 33 18 NW 20 0,0
22.05.2018 10:00:00 10,8 6,2 10 5 20 11 NNE 20 0,0
22.05.2018 09:00:00 9,1 5,5 18 10 24 13 NW 20 0,0
22.05.2018 08:00:00 8,5 5,8 13 7 19 10 NW 20 0,0
22.05.2018 07:00:00 7,5 5,5 16 8 22 12 NW 17 0,0
22.05.2018 06:00:00 7,5 4,8 16 9 20 11 WNW 20 0,0
22.05.2018 05:00:00 7,8 4,2 11 6 17 9 WNW 20 0,0
22.05.2018 04:00:00 8,4 2,2 14 8 18 10 W 20 0,0
22.05.2018 03:00:00 8,4 2,2 14 8 30 16 WSW 20 0,0
22.05.2018 02:00:00 8,3 2,7 18 10 37 20 SSW 20 0,0
22.05.2018 01:00:00 8,6 2,6 26 14 37 20 SSW 20 0,0
22.05.2018 00:00:00 8,4 3,8 23 12 28 15 S 20 0,0
21.05.2018 23:00:00 8,0 7,1 18 10 29 16 S 8 0,0
21.05.2018 22:00:00 8,2 7,3 24 13 33 18 S 5 0,0
21.05.2018 21:00:00 8,8 7,9 18 10 32 18 S 0,4 0,0
21.05.2018 20:00:00 9,9 8,0 22 12 40 22 S 18 0,0
21.05.2018 19:00:00 10,9 8,1 23 12 54 29 S 20 0,0
21.05.2018 18:00:00 11,4 8,4 23 13 36 20 S 20 0,0
21.05.2018 17:00:00 10,9 7,8 26 14 48 26 S 20 0,0
21.05.2018 16:00:00 11,6 7,3 31 17 50 27 S 20 0,0
21.05.2018 15:00:00 11,6 7,5 24 13 46 25 S 20 0,0
21.05.2018 14:00:00 10,5 7,0 27 14 54 29 S 20 0,0
21.05.2018 13:00:00 11,6 7,1 29 16 54 29 S 20 0,0
21.05.2018 12:00:00 10,7 7,0 33 18 61 33 S 20 0,0
21.05.2018 11:00:00 10,6 7,7 35 19 56 30 S 20 0,0
21.05.2018 10:00:00 9,1 6,7 35 19 51 27 S 19 0,0
21.05.2018 09:00:00 8,3 6,6 31 17 47 26 S 18 0,0
21.05.2018 08:00:00 8,3 6,1 30 16 36 19 S 20 0,0
21.05.2018 07:00:00 7,5 5,5 26 14 43 23 S 19 0,0
21.05.2018 06:00:00 7,6 5,6 29 15 51 28 S 20 0,0
21.05.2018 05:00:00 7,6 5,4 31 17 49 26 S 20 0,0
21.05.2018 04:00:00 7,4 4,9 30 16 44 24 S 20 0,0
21.05.2018 03:00:00 7,2 6,8 23 13 31 17 S 3,0 0,0
21.05.2018 02:00:00 7,2 6,1 22 12 27 15 S 20 0,0
21.05.2018 01:00:00 7,2 5,2 19 10 21 12 S 20 0,0
21.05.2018 00:00:00 7,4 5,4 18 10 26 14 SE 20 0,0
20.05.2018 23:00:00 7,2 6,3 17 9 23 12 ESE 20 1,6

tt = Température de l'air
td = dewpoint
ff = Vitesse du vent
fx = gusts
dd = Direction du vent
vv = visibility
rr = Quantités de précipitations

stations d'obs. à proximité